Terminal Aerodrome Forecast
Issued by NWS Cleveland, OH

Home | Current Version | Previous Version | Text Only | Print | Product List | Glossary Off
Versions: 1 2 3 4 5 6 7 8 9 10 11 12 13 14 15 16

000
FTUS41 KCLE 081735
TAFYNG
TAF
KYNG 081735Z 0818/0918 26015G22KT 6SM -SHSN OVC035
      TEMPO 0818/0822 3SM -SHSN BKN025
     FM082200 26012G20KT 3SM -SHSN OVC012
     FM090300 27012G20KT 1SM -SHSN OVC005
     FM091200 27012KT 2SM -SHSN OVC008=

USA.gov is the U.S. government's official web portal to all federal, state and local government web resources and services.